createdAt,value
2023-05-23T00:01:19.421Z,4.03
2023-05-23T00:03:49.414Z,4.30
2023-05-23T00:06:22.961Z,4.32
2023-05-23T00:08:52.051Z,4.97
2023-05-23T00:11:24.168Z,4.05
2023-05-23T00:13:52.834Z,4.28
2023-05-23T00:16:21.596Z,4.30
2023-05-23T00:18:51.868Z,4.30
2023-05-23T00:21:20.699Z,4.72
2023-05-23T00:23:50.721Z,4.45
2023-05-23T00:26:19.407Z,4.78
2023-05-23T00:28:48.804Z,4.57
2023-05-23T00:31:17.793Z,4.25
2023-05-23T00:33:46.532Z,4.60
2023-05-23T00:36:15.323Z,4.82
2023-05-23T00:38:45.920Z,4.47
2023-05-23T00:41:16.392Z,4.65
2023-05-23T00:43:45.165Z,4.35
2023-05-23T00:46:14.006Z,4.72
2023-05-23T00:48:42.814Z,4.18
2023-05-23T00:51:11.561Z,4.85
2023-05-23T00:53:40.273Z,4.20
2023-05-23T00:56:09.160Z,4.18
2023-05-23T00:58:39.184Z,4.40
2023-05-23T01:01:08.025Z,4.15
2023-05-23T01:03:36.924Z,4.10
2023-05-23T01:06:05.863Z,4.28
2023-05-23T01:08:34.677Z,4.32
2023-05-23T01:11:08.259Z,4.18
2023-05-23T01:13:42.078Z,4.15
2023-05-23T01:16:15.377Z,4.18
2023-05-23T01:18:48.164Z,3.92
2023-05-23T01:21:19.166Z,4.65
2023-05-23T01:24:06.082Z,3.80
2023-05-23T01:26:43.076Z,4.70
2023-05-23T01:29:13.800Z,3.75
2023-05-23T01:31:45.088Z,3.78
2023-05-23T01:34:14.642Z,3.80
2023-05-23T01:36:44.740Z,4.07
2023-05-23T01:39:13.604Z,3.58
2023-05-23T01:41:42.245Z,4.47
2023-05-23T01:44:11.096Z,4.30
2023-05-23T01:46:41.755Z,4.05
2023-05-23T01:49:11.563Z,4.07
2023-05-23T01:51:40.846Z,3.58
2023-05-23T01:54:09.929Z,4.32
2023-05-23T01:56:38.932Z,4.10
2023-05-23T01:59:08.029Z,3.70
2023-05-23T02:01:37.279Z,3.45
2023-05-23T02:04:07.772Z,3.72
2023-05-23T02:06:36.498Z,3.70
2023-05-23T02:09:05.343Z,3.63
2023-05-23T02:11:34.169Z,3.65
2023-05-23T02:14:04.006Z,3.53
2023-05-23T02:16:33.383Z,3.67
2023-05-23T02:19:02.349Z,3.80
2023-05-23T02:21:35.012Z,3.78
2023-05-23T02:24:05.410Z,3.67
2023-05-23T02:26:34.235Z,3.50
2023-05-23T02:29:02.950Z,3.78
2023-05-23T02:31:31.992Z,3.42
2023-05-23T02:34:01.220Z,3.60
2023-05-23T02:36:29.971Z,3.35
2023-05-23T02:39:00.143Z,3.95
2023-05-23T02:41:28.867Z,3.42
2023-05-23T02:43:57.848Z,3.67
2023-05-23T02:46:26.980Z,3.80
2023-05-23T02:48:56.140Z,3.60
2023-05-23T02:51:24.873Z,3.42
2023-05-23T02:53:53.511Z,3.65
2023-05-23T02:56:23.860Z,3.40
2023-05-23T02:58:52.675Z,3.67
2023-05-23T03:01:21.641Z,3.58
2023-05-23T03:03:50.598Z,3.63
2023-05-23T03:06:22.446Z,3.10
2023-05-23T03:08:51.641Z,3.15
2023-05-23T03:11:20.411Z,2.83
2023-05-23T03:13:50.629Z,2.72
2023-05-23T03:16:19.425Z,2.90
2023-05-23T03:18:48.147Z,2.97
2023-05-23T03:21:18.855Z,2.75
2023-05-23T03:23:47.560Z,2.90
2023-05-23T03:26:16.281Z,2.60
2023-05-23T03:28:44.936Z,3.85
2023-05-23T03:31:14.977Z,3.55
2023-05-23T03:33:43.765Z,3.20
2023-05-23T03:36:12.478Z,2.75
2023-05-23T03:38:41.215Z,2.90
2023-05-23T03:41:10.440Z,2.70
2023-05-23T03:43:39.256Z,2.55
2023-05-23T03:46:08.650Z,2.72
2023-05-23T03:48:38.875Z,2.63
2023-05-23T03:51:07.699Z,2.50
2023-05-23T03:53:36.857Z,2.97
2023-05-23T03:56:06.618Z,2.92
2023-05-23T03:58:35.634Z,3.03
2023-05-23T04:01:10.710Z,2.83
2023-05-23T04:03:41.006Z,4.15
2023-05-23T04:06:11.648Z,2.60
2023-05-23T04:08:43.646Z,2.33
2023-05-23T04:11:13.567Z,2.70
2023-05-23T04:13:44.164Z,2.40
2023-05-23T04:16:13.329Z,2.38
2023-05-23T04:18:47.292Z,2.65
2023-05-23T04:21:16.871Z,2.70
2023-05-23T04:24:03.257Z,2.88
2023-05-23T04:26:33.040Z,2.50
2023-05-23T04:29:02.057Z,2.53
2023-05-23T04:31:30.956Z,3.63
2023-05-23T04:34:02.479Z,2.85
2023-05-23T04:36:32.089Z,2.35
2023-05-23T04:39:01.151Z,2.63
2023-05-23T04:41:33.800Z,3.20
2023-05-23T04:44:22.934Z,2.67
2023-05-23T04:47:04.524Z,2.75
2023-05-23T04:49:49.178Z,2.60
2023-05-23T04:52:19.103Z,2.47
2023-05-23T04:54:48.877Z,2.35
2023-05-23T04:57:17.830Z,2.10
2023-05-23T04:59:46.604Z,2.50
2023-05-23T05:02:18.410Z,3.13
2023-05-23T05:04:48.707Z,2.40
2023-05-23T05:07:17.970Z,2.38
2023-05-23T05:09:46.735Z,2.80
2023-05-23T05:12:15.446Z,1.98
2023-05-23T05:14:44.202Z,2.58
2023-05-23T05:17:14.007Z,2.00
2023-05-23T05:20:07.192Z,2.50
2023-05-23T05:22:37.502Z,2.00
2023-05-23T05:25:07.391Z,1.83
2023-05-23T05:27:38.095Z,2.20
2023-05-23T05:30:09.505Z,1.95
2023-05-23T05:32:48.473Z,2.03
2023-05-23T05:35:18.912Z,1.83
2023-05-23T05:37:48.763Z,2.03
2023-05-23T05:40:17.580Z,1.90
2023-05-23T05:42:46.390Z,2.00
2023-05-23T05:45:15.235Z,2.08
2023-05-23T05:47:44.935Z,1.85
2023-05-23T05:50:13.884Z,2.03
2023-05-23T05:52:44.119Z,2.13
2023-05-23T05:55:13.913Z,1.95
2023-05-23T05:57:47.482Z,2.10
2023-05-23T06:00:19.211Z,2.20
2023-05-23T06:02:48.573Z,2.30
2023-05-23T06:05:24.963Z,2.60
2023-05-23T06:07:55.092Z,1.80
2023-05-23T06:10:25.004Z,1.70
2023-05-23T06:12:54.748Z,1.85
2023-05-23T06:15:23.459Z,2.30
2023-05-23T06:17:53.194Z,1.75
2023-05-23T06:20:22.021Z,2.22
2023-05-23T06:22:51.546Z,2.20
2023-05-23T06:25:21.833Z,1.85
2023-05-23T06:27:51.239Z,1.90
2023-05-23T06:30:20.007Z,2.20
2023-05-23T06:32:48.780Z,2.35
2023-05-23T06:35:17.792Z,2.13
2023-05-23T06:37:46.480Z,2.03
2023-05-23T06:40:15.342Z,2.17
2023-05-23T06:42:45.521Z,2.10
2023-05-23T06:45:26.992Z,1.77
2023-05-23T06:47:55.771Z,2.40
2023-05-23T06:50:24.651Z,2.30
2023-05-23T06:52:54.690Z,2.72
2023-05-23T06:55:23.538Z,2.28
2023-05-23T06:57:53.606Z,2.15
2023-05-23T07:00:24.001Z,2.22
2023-05-23T07:03:13.066Z,2.20
2023-05-23T07:05:42.002Z,2.22
2023-05-23T07:08:12.104Z,2.25
2023-05-23T07:10:43.989Z,2.13
2023-05-23T07:13:26.938Z,2.10
2023-05-23T07:15:56.260Z,2.00
2023-05-23T07:18:25.375Z,2.15
2023-05-23T07:20:54.635Z,1.80
2023-05-23T07:23:25.673Z,1.80
2023-05-23T07:26:02.487Z,1.70
2023-05-23T07:28:43.398Z,2.00
2023-05-23T07:31:13.614Z,1.88
2023-05-23T07:33:43.231Z,2.17
2023-05-23T07:36:14.979Z,1.98
2023-05-23T07:38:43.742Z,2.03
2023-05-23T07:41:12.767Z,1.98
2023-05-23T07:43:44.118Z,1.98
2023-05-23T07:46:12.970Z,2.03
2023-05-23T07:48:41.957Z,1.95
2023-05-23T07:51:10.949Z,1.67
2023-05-23T07:53:40.528Z,2.00
2023-05-23T07:56:13.235Z,2.03
2023-05-23T07:58:45.180Z,1.80
2023-05-23T08:01:14.015Z,1.73
2023-05-23T08:04:04.091Z,5.30
2023-05-23T08:07:03.660Z,1.90
2023-05-23T08:09:54.235Z,2.50
2023-05-23T08:12:24.502Z,2.05
2023-05-23T08:15:03.864Z,2.35
2023-05-23T08:17:38.485Z,1.90
2023-05-23T08:20:09.867Z,1.80
2023-05-23T08:22:38.863Z,1.80
2023-05-23T08:25:08.365Z,1.70
2023-05-23T08:27:39.574Z,1.95
2023-05-23T08:30:25.437Z,2.15
2023-05-23T08:32:55.376Z,1.90
2023-05-23T08:35:24.458Z,1.98
2023-05-23T08:37:53.845Z,1.40
2023-05-23T08:40:23.630Z,2.05
2023-05-23T08:43:06.728Z,1.67
2023-05-23T08:45:37.424Z,2.00
2023-05-23T08:48:11.852Z,1.75
2023-05-23T08:50:45.124Z,1.90
2023-05-23T08:53:20.261Z,2.22
2023-05-23T08:55:54.595Z,1.92
2023-05-23T08:58:29.255Z,2.83
2023-05-23T09:01:01.237Z,2.08
2023-05-23T09:03:30.884Z,1.80
2023-05-23T09:06:26.326Z,2.00
2023-05-23T09:08:56.089Z,1.80
2023-05-23T09:11:26.407Z,1.90
2023-05-23T09:13:56.102Z,2.00
2023-05-23T09:16:33.858Z,2.00
2023-05-23T09:19:12.604Z,1.63
2023-05-23T09:21:44.815Z,2.17
2023-05-23T09:24:39.300Z,1.70
2023-05-23T09:27:10.804Z,1.73
2023-05-23T09:29:40.832Z,1.92
2023-05-23T09:32:14.688Z,2.00
2023-05-23T09:34:44.132Z,2.70
2023-05-23T09:37:19.145Z,1.80
2023-05-23T09:39:48.771Z,1.98
2023-05-23T09:42:22.320Z,1.70
2023-05-23T09:44:51.275Z,1.90
2023-05-23T09:47:21.483Z,2.00
2023-05-23T09:49:51.437Z,1.77
2023-05-23T09:52:21.382Z,1.85
2023-05-23T09:54:50.921Z,1.80
2023-05-23T09:57:21.489Z,1.80
2023-05-23T09:59:54.391Z,1.75
2023-05-23T10:02:47.944Z,1.85
2023-05-23T10:05:24.331Z,2.15
2023-05-23T10:07:53.510Z,1.83
2023-05-23T10:10:22.381Z,1.63
2023-05-23T10:12:52.219Z,1.63
2023-05-23T10:15:21.971Z,1.95
2023-05-23T10:17:59.527Z,2.05
2023-05-23T10:20:31.898Z,1.80
2023-05-23T10:23:02.246Z,1.73
2023-05-23T10:25:31.459Z,1.90
2023-05-23T10:28:04.166Z,2.00
2023-05-23T10:30:33.629Z,1.90
2023-05-23T10:33:06.805Z,1.60
2023-05-23T10:35:42.382Z,2.25
2023-05-23T10:38:15.831Z,1.90
2023-05-23T10:40:48.694Z,1.70
2023-05-23T10:43:20.728Z,2.22
2023-05-23T10:45:50.923Z,1.77
2023-05-23T10:48:23.899Z,2.00
2023-05-23T10:51:06.112Z,1.85
2023-05-23T10:53:37.028Z,1.75
2023-05-23T10:56:08.328Z,1.85
2023-05-23T10:58:38.288Z,1.80
2023-05-23T11:01:07.729Z,1.73
2023-05-23T11:03:40.875Z,1.80
2023-05-23T11:06:09.955Z,1.90
2023-05-23T11:08:47.672Z,1.80
2023-05-23T11:11:17.489Z,1.90
2023-05-23T11:14:07.293Z,1.90
2023-05-23T11:16:43.241Z,1.80
2023-05-23T11:19:28.227Z,1.80
2023-05-23T11:21:59.080Z,2.38
2023-05-23T11:24:42.652Z,1.90
2023-05-23T11:27:13.932Z,2.20
2023-05-23T11:29:42.616Z,2.10
2023-05-23T11:32:17.709Z,1.77
2023-05-23T11:34:48.354Z,1.90
2023-05-23T11:37:18.049Z,1.85
2023-05-23T11:39:46.801Z,2.17
2023-05-23T11:42:15.562Z,2.00
2023-05-23T11:44:45.194Z,2.10
2023-05-23T11:47:13.881Z,2.20
2023-05-23T11:49:42.670Z,1.92
2023-05-23T11:52:13.146Z,1.80
2023-05-23T11:54:43.067Z,1.70
2023-05-23T11:57:12.731Z,1.88
2023-05-23T11:59:41.474Z,2.03
2023-05-23T12:02:10.437Z,2.22
2023-05-23T12:04:39.336Z,1.80
2023-05-23T12:07:08.451Z,1.65
2023-05-23T12:09:45.273Z,1.60
2023-05-23T12:12:14.307Z,1.98
2023-05-23T12:14:44.863Z,2.00
2023-05-23T12:17:14.276Z,2.05
2023-05-23T12:19:47.994Z,1.95
2023-05-23T12:22:16.882Z,2.20
2023-05-23T12:24:50.132Z,1.98
2023-05-23T12:27:19.071Z,2.00
2023-05-23T12:29:52.753Z,1.85
2023-05-23T12:32:21.653Z,1.90
2023-05-23T12:34:51.494Z,2.00
2023-05-23T12:37:20.841Z,2.30
2023-05-23T12:39:51.061Z,1.80
2023-05-23T12:42:19.836Z,1.88
2023-05-23T12:44:51.820Z,2.03
2023-05-23T12:47:20.816Z,2.13
2023-05-23T12:49:49.932Z,2.70
2023-05-23T12:52:18.679Z,2.20
2023-05-23T12:54:47.385Z,2.20
2023-05-23T12:57:17.508Z,2.40
2023-05-23T12:59:46.339Z,1.83
2023-05-23T13:02:15.020Z,1.80
2023-05-23T13:04:43.944Z,2.00
2023-05-23T13:07:12.901Z,1.88
2023-05-23T13:09:41.715Z,2.05
2023-05-23T13:12:10.707Z,2.20
2023-05-23T13:14:40.793Z,2.55
2023-05-23T13:17:09.817Z,2.20
2023-05-23T13:19:39.289Z,2.00
2023-05-23T13:22:10.491Z,1.98
2023-05-23T13:24:39.291Z,2.05
2023-05-23T13:27:08.579Z,2.08
2023-05-23T13:29:37.291Z,2.00
2023-05-23T13:32:07.591Z,2.40
2023-05-23T13:34:37.517Z,1.85
2023-05-23T13:37:06.751Z,2.22
2023-05-23T13:39:35.504Z,2.20
2023-05-23T13:42:04.301Z,2.00
2023-05-23T13:44:32.993Z,2.00
2023-05-23T13:47:13.135Z,2.22
2023-05-23T13:49:44.022Z,1.80
2023-05-23T13:52:12.971Z,1.90
2023-05-23T13:54:42.468Z,2.13
2023-05-23T13:57:11.322Z,2.00
2023-05-23T13:59:40.049Z,1.80
2023-05-23T14:02:09.156Z,1.85
2023-05-23T14:04:38.393Z,1.70
2023-05-23T14:07:08.563Z,1.80
2023-05-23T14:09:37.408Z,1.98
2023-05-23T14:12:06.538Z,1.77
2023-05-23T14:14:35.889Z,2.33
2023-05-23T14:17:04.801Z,1.67
2023-05-23T14:19:33.620Z,1.92
2023-05-23T14:22:02.447Z,1.98
2023-05-23T14:24:32.565Z,2.08
2023-05-23T14:27:02.612Z,1.92
2023-05-23T14:29:31.798Z,2.00
2023-05-23T14:32:02.828Z,2.00
2023-05-23T14:34:32.108Z,1.95
2023-05-23T14:37:00.882Z,1.90
2023-05-23T14:39:30.038Z,1.73
2023-05-23T14:42:00.333Z,1.92
2023-05-23T14:44:29.187Z,2.13
2023-05-23T14:46:58.004Z,2.10
2023-05-23T14:49:26.709Z,1.90
2023-05-23T14:51:55.492Z,1.55
2023-05-23T14:54:24.182Z,1.60
2023-05-23T14:56:53.507Z,1.98
2023-05-23T14:59:23.771Z,1.90
2023-05-23T15:01:52.649Z,2.00
2023-05-23T15:04:21.672Z,2.00
2023-05-23T15:06:51.017Z,2.00
2023-05-23T15:09:20.167Z,2.00
2023-05-23T15:11:49.567Z,2.00
2023-05-23T15:14:18.493Z,1.90
2023-05-23T15:16:49.028Z,1.80
2023-05-23T15:19:17.964Z,1.80
2023-05-23T15:21:51.016Z,1.80
2023-05-23T15:24:20.691Z,1.77
2023-05-23T15:26:49.616Z,1.80
2023-05-23T15:29:18.758Z,1.73
2023-05-23T15:31:48.959Z,1.80
2023-05-23T15:34:18.224Z,1.50
2023-05-23T15:36:47.026Z,1.90
2023-05-23T15:39:16.952Z,1.80
2023-05-23T15:41:46.869Z,1.90
2023-05-23T15:44:19.729Z,1.98
2023-05-23T15:46:50.375Z,1.70
2023-05-23T15:49:26.501Z,2.65
2023-05-23T15:51:55.995Z,1.45
2023-05-23T15:54:24.659Z,1.50
2023-05-23T15:56:53.565Z,1.70
2023-05-23T15:59:22.324Z,1.40
2023-05-23T16:01:52.750Z,1.60
2023-05-23T16:04:23.389Z,1.92
2023-05-23T16:06:52.286Z,1.90
2023-05-23T16:09:21.031Z,2.00
2023-05-23T16:11:49.767Z,1.92
2023-05-23T16:14:18.566Z,2.00
2023-05-23T16:16:47.393Z,2.03
2023-05-23T16:19:17.676Z,1.70
2023-05-23T16:21:46.912Z,1.70
2023-05-23T16:24:17.160Z,1.92
2023-05-23T16:26:45.987Z,1.70
2023-05-23T16:29:14.666Z,2.13
2023-05-23T16:31:43.489Z,2.00
2023-05-23T16:34:12.233Z,1.80
2023-05-23T16:36:42.519Z,2.00
2023-05-23T16:39:11.294Z,1.85
2023-05-23T16:41:40.040Z,1.73
2023-05-23T16:44:08.910Z,1.70
2023-05-23T16:46:37.719Z,1.75
2023-05-23T16:49:06.461Z,1.90
2023-05-23T16:51:35.228Z,1.90
2023-05-23T16:54:05.301Z,1.80
2023-05-23T16:56:33.974Z,2.00
2023-05-23T16:59:02.832Z,1.85
2023-05-23T17:01:31.692Z,1.80
2023-05-23T17:04:00.539Z,2.10
2023-05-23T17:06:29.414Z,2.10
2023-05-23T17:08:58.403Z,2.10
2023-05-23T17:11:28.501Z,2.30
2023-05-23T17:13:57.293Z,1.95
2023-05-23T17:16:26.088Z,2.42
2023-05-23T17:18:55.059Z,2.10
2023-05-23T17:21:23.905Z,2.22
2023-05-23T17:23:52.640Z,1.85
2023-05-23T17:26:21.314Z,2.25
2023-05-23T17:28:51.473Z,2.33
2023-05-23T17:31:21.030Z,2.22
2023-05-23T17:33:49.916Z,1.90
2023-05-23T17:36:18.654Z,1.70
2023-05-23T17:38:47.589Z,2.33
2023-05-23T17:41:16.842Z,2.45
2023-05-23T17:43:45.517Z,2.15
2023-05-23T17:46:15.629Z,2.35
2023-05-23T17:48:47.209Z,1.90
2023-05-23T17:51:17.124Z,2.13
2023-05-23T17:53:45.977Z,2.38
2023-05-23T17:56:14.897Z,2.20
2023-05-23T17:58:44.463Z,2.10
2023-05-23T18:01:15.003Z,2.40
2023-05-23T18:03:43.886Z,2.40
2023-05-23T18:06:12.691Z,1.95
2023-05-23T18:08:42.591Z,1.95
2023-05-23T18:11:11.524Z,2.05
2023-05-23T18:13:40.547Z,2.10
2023-05-23T18:16:09.402Z,2.30
2023-05-23T18:18:39.558Z,1.95
2023-05-23T18:21:08.334Z,2.20
2023-05-23T18:23:37.051Z,2.42
2023-05-23T18:26:06.080Z,2.55
2023-05-23T18:28:34.982Z,2.45
2023-05-23T18:31:03.881Z,2.90
2023-05-23T18:33:32.634Z,2.22
2023-05-23T18:36:03.187Z,2.30
2023-05-23T18:38:31.992Z,2.42
2023-05-23T18:41:00.852Z,3.38
2023-05-23T18:43:29.971Z,3.03
2023-05-23T18:45:58.926Z,3.70
2023-05-23T18:48:27.763Z,3.00
2023-05-23T18:50:56.686Z,3.15
2023-05-23T18:53:26.855Z,3.03
2023-05-23T18:55:55.502Z,2.90
2023-05-23T18:58:24.246Z,2.70
2023-05-23T19:00:53.404Z,2.78
2023-05-23T19:03:22.223Z,2.88
2023-05-23T19:05:51.147Z,2.70
2023-05-23T19:08:19.819Z,2.80
2023-05-23T19:10:50.030Z,2.42
2023-05-23T19:13:20.606Z,2.67
2023-05-23T19:15:50.460Z,2.63
2023-05-23T19:18:19.596Z,2.50
2023-05-23T19:20:51.634Z,2.38
2023-05-23T19:23:20.373Z,2.53
2023-05-23T19:25:50.579Z,2.40
2023-05-23T19:28:19.288Z,2.83
2023-05-23T19:30:48.177Z,2.55
2023-05-23T19:33:16.949Z,2.35
2023-05-23T19:35:45.791Z,2.45
2023-05-23T19:38:14.628Z,2.30
2023-05-23T19:40:43.532Z,2.60
2023-05-23T19:43:13.823Z,2.70
2023-05-23T19:45:42.777Z,3.00
2023-05-23T19:48:11.609Z,2.65
2023-05-23T19:50:43.361Z,2.83
2023-05-23T19:53:12.634Z,2.88
2023-05-23T19:55:42.747Z,2.40
2023-05-23T19:58:11.802Z,3.00
2023-05-23T20:00:42.833Z,2.30
2023-05-23T20:03:11.783Z,2.40
2023-05-23T20:05:40.847Z,3.03
2023-05-23T20:08:09.781Z,2.00
2023-05-23T20:10:39.183Z,2.53
2023-05-23T20:13:08.146Z,2.42
2023-05-23T20:15:45.013Z,2.67
2023-05-23T20:18:15.498Z,2.60
2023-05-23T20:20:44.222Z,2.47
2023-05-23T20:23:13.140Z,2.92
2023-05-23T20:25:43.254Z,2.67
2023-05-23T20:28:12.009Z,2.80
2023-05-23T20:30:41.077Z,3.00
2023-05-23T20:33:10.107Z,2.65
2023-05-23T20:35:41.260Z,2.70
2023-05-23T20:38:10.174Z,2.50
2023-05-23T20:40:38.996Z,3.33
2023-05-23T20:43:07.748Z,2.88
2023-05-23T20:45:37.373Z,3.00
2023-05-23T20:48:06.139Z,3.28
2023-05-23T20:50:36.664Z,2.33
2023-05-23T20:53:07.503Z,2.85
2023-05-23T20:55:38.152Z,2.90
2023-05-23T20:58:07.540Z,3.10
2023-05-23T21:00:36.485Z,2.47
2023-05-23T21:03:05.378Z,3.00
2023-05-23T21:05:34.194Z,2.45
2023-05-23T21:08:02.927Z,3.13
2023-05-23T21:10:33.181Z,2.97
2023-05-23T21:13:01.994Z,2.95
2023-05-23T21:15:30.759Z,2.78
2023-05-23T21:17:59.624Z,3.08
2023-05-23T21:20:29.227Z,3.10
2023-05-23T21:22:58.490Z,2.95
2023-05-23T21:25:27.547Z,3.00
2023-05-23T21:27:57.716Z,3.08
2023-05-23T21:30:40.353Z,3.05
2023-05-23T21:33:09.381Z,2.53
2023-05-23T21:35:38.640Z,2.75
2023-05-23T21:38:07.572Z,2.88
2023-05-23T21:40:36.501Z,2.85
2023-05-23T21:43:06.738Z,3.17
2023-05-23T21:45:35.518Z,3.40
2023-05-23T21:48:04.289Z,3.70
2023-05-23T21:50:33.070Z,3.28
2023-05-23T21:53:01.932Z,3.08
2023-05-23T21:55:30.938Z,3.30
2023-05-23T21:57:59.725Z,3.10
2023-05-23T22:00:29.990Z,3.30
2023-05-23T22:02:58.851Z,3.17
2023-05-23T22:05:27.726Z,3.65
2023-05-23T22:07:56.424Z,2.80
2023-05-23T22:10:25.198Z,3.33
2023-05-23T22:12:53.888Z,2.97
2023-05-23T22:15:22.648Z,3.60
2023-05-23T22:17:52.780Z,3.38
2023-05-23T22:20:23.324Z,3.33
2023-05-23T22:22:52.658Z,3.72
2023-05-23T22:25:21.881Z,3.40
2023-05-23T22:27:50.738Z,3.45
2023-05-23T22:30:19.445Z,3.50
2023-05-23T22:32:48.317Z,3.30
2023-05-23T22:35:18.420Z,3.20
2023-05-23T22:37:47.754Z,3.63
2023-05-23T22:40:16.895Z,3.20
2023-05-23T22:42:45.894Z,3.65
2023-05-23T22:45:15.386Z,3.30
2023-05-23T22:47:48.426Z,3.60
2023-05-23T22:50:19.036Z,3.40
2023-05-23T22:52:48.535Z,3.45
2023-05-23T22:55:17.242Z,3.50
2023-05-23T22:57:46.029Z,3.95
2023-05-23T23:00:15.178Z,3.30
2023-05-23T23:02:45.004Z,3.58
2023-05-23T23:05:14.757Z,3.42
2023-05-23T23:07:44.791Z,3.80
2023-05-23T23:10:13.645Z,3.85
2023-05-23T23:12:42.801Z,3.80
2023-05-23T23:15:11.976Z,3.80
2023-05-23T23:17:41.266Z,3.33
2023-05-23T23:20:12.737Z,4.25
2023-05-23T23:22:41.626Z,4.45
2023-05-23T23:25:12.289Z,4.35
2023-05-23T23:27:41.270Z,4.50
2023-05-23T23:30:10.591Z,4.15
2023-05-23T23:32:39.399Z,4.10
2023-05-23T23:35:08.417Z,4.45
2023-05-23T23:37:37.373Z,4.65
2023-05-23T23:40:06.398Z,4.97
2023-05-23T23:42:36.588Z,4.53
2023-05-23T23:45:05.882Z,4.38
2023-05-23T23:47:34.614Z,4.47
2023-05-23T23:50:03.420Z,4.55
2023-05-23T23:52:33.012Z,3.90
2023-05-23T23:55:02.190Z,3.97
2023-05-23T23:57:31.025Z,3.92
